Time;durP1;ratioP1;P1;durP2;ratioP2;P2;SDS_P1;SDS_P2;PMS_P1;PMS_P2;Temp;Humidity;BMP_temperature;BMP_pressure;BME280_temperature;BME280_humidity;BME280_pressure;Samples;Min_cycle;Max_cycle;Signal;HPM_P1;HPM_P2
2022/03/23 00:00:39;;;;;;;2.95;2.33;;;;;;;19.49;37.84;98252.63;10546766;28;20040;-57
2022/03/23 00:05:59;;;;;;;2.60;2.38;;;;;;;19.48;37.69;98245.63;10554499;28;20056;-57
2022/03/23 00:11:19;;;;;;;2.92;2.47;;;;;;;19.47;37.84;98246.72;10553454;28;20052;-57
2022/03/23 00:16:39;;;;;;;3.10;2.38;;;;;;;19.46;37.82;98242.38;10558242;28;20055;-58
2022/03/23 00:21:58;;;;;;;3.08;2.42;;;;;;;19.45;37.81;98240.78;10537510;28;20475;-57
2022/03/23 00:27:18;;;;;;;3.13;2.70;;;;;;;19.44;37.71;98243.78;10544013;28;20062;-56
2022/03/23 00:32:37;;;;;;;3.03;2.30;;;;;;;19.44;37.67;98232.97;10556701;28;20112;-57
2022/03/23 00:37:58;;;;;;;4.00;2.33;;;;;;;19.42;37.75;98235.94;10553547;28;20059;-57
2022/03/23 00:43:17;;;;;;;4.15;2.38;;;;;;;19.41;37.77;98239.75;10541409;28;20056;-58
2022/03/23 00:48:37;;;;;;;2.45;2.22;;;;;;;19.40;37.84;98223.81;10550013;28;20405;-57
2022/03/23 00:53:57;;;;;;;2.88;2.38;;;;;;;19.39;37.71;98225.72;10559109;28;20056;-58
2022/03/23 00:59:16;;;;;;;3.63;2.38;;;;;;;19.39;37.75;98227.63;10574059;28;20055;-57
2022/03/23 01:04:36;;;;;;;3.17;2.70;;;;;;;19.36;37.71;98215.47;10563426;28;20044;-57
2022/03/23 01:09:56;;;;;;;2.75;2.05;;;;;;;19.36;37.70;98215.47;10548495;28;20623;-57
2022/03/23 01:15:21;;;;;;;3.33;2.30;;;;;;;19.34;37.67;98213.06;10537677;28;20051;-56
2022/03/23 01:20:41;;;;;;;2.83;2.25;;;;;;;19.33;37.73;98208.75;10541754;28;20418;-57
2022/03/23 01:26:01;;;;;;;2.65;2.22;;;;;;;19.32;37.57;98199.03;10563446;28;20409;-57
2022/03/23 01:31:21;;;;;;;2.20;2.00;;;;;;;19.32;37.67;98199.03;10548850;28;20047;-57
2022/03/23 01:36:40;;;;;;;2.88;2.40;;;;;;;19.32;37.74;98198.25;10539668;28;20109;-58
2022/03/23 01:42:00;;;;;;;2.65;2.40;;;;;;;19.30;37.65;98189.63;10542475;28;20430;-57
2022/03/23 01:47:21;;;;;;;3.75;2.20;;;;;;;19.29;37.70;98185.31;10544321;28;20438;-55
2022/03/23 01:52:40;;;;;;;2.20;2.00;;;;;;;19.29;37.70;98182.63;10543833;28;20449;-57
2022/03/23 01:58:00;;;;;;;2.42;2.10;;;;;;;19.27;37.66;98179.41;10576518;28;20039;-57
2022/03/23 02:03:28;;;;;;;2.75;2.20;;;;;;;19.25;37.67;98171.59;10569442;28;20040;-57
2022/03/23 02:08:48;;;;;;;2.40;2.20;;;;;;;19.25;37.54;98170.75;10553806;28;20040;-57
2022/03/23 02:14:09;;;;;;;2.40;1.80;;;;;;;19.23;37.62;98162.13;10576375;28;20055;-57
2022/03/23 02:19:29;;;;;;;2.33;2.13;;;;;;;19.22;37.62;98160.53;10556570;28;20040;-54
2022/03/23 02:24:50;;;;;;;2.75;2.20;;;;;;;19.21;37.54;98170.56;10549040;28;20048;-56
2022/03/23 02:30:10;;;;;;;2.20;2.00;;;;;;;19.20;37.61;98165.44;10537484;28;20045;-56
2022/03/23 02:35:29;;;;;;;2.58;2.10;;;;;;;19.19;37.63;98155.69;10523961;28;20052;-56
2022/03/23 02:40:49;;;;;;;1.90;1.70;;;;;;;19.18;37.56;98165.72;10538452;28;20121;-57
2022/03/23 02:46:20;;;;;;;1.75;1.65;;;;;;;19.16;37.53;98157.09;10527904;28;20036;-58
2022/03/23 02:51:39;;;;;;;1.92;1.77;;;;;;;19.15;37.53;98156.28;10510326;28;20048;-56
2022/03/23 03:02:41;;;;;;;2.17;1.98;;;;;;;19.12;37.47;98162.25;10518420;28;20064;-57
2022/03/23 03:13:40;;;;;;;2.20;1.95;;;;;;;19.10;37.45;98159.03;10549364;28;20437;-56
2022/03/23 03:19:00;;;;;;;1.95;1.83;;;;;;;19.09;37.58;98153.94;10572621;28;20040;-56
2022/03/23 03:24:20;;;;;;;2.78;1.80;;;;;;;19.08;37.46;98157.72;10546878;28;20406;-57
2022/03/23 03:29:39;;;;;;;2.83;2.00;;;;;;;19.06;37.44;98163.41;10567466;28;20051;-56
2022/03/23 03:34:59;;;;;;;1.83;1.60;;;;;;;19.06;37.56;98157.22;10551326;28;20059;-56
2022/03/23 03:40:18;;;;;;;1.92;1.70;;;;;;;19.03;37.56;98161.28;10573224;28;20043;-57
2022/03/23 03:45:38;;;;;;;2.80;2.33;;;;;;;19.03;37.55;98157.78;10537204;28;20051;-57
2022/03/23 03:50:58;;;;;;;2.15;1.90;;;;;;;19.02;37.59;98156.19;10555989;28;20054;-57
2022/03/23 03:56:17;;;;;;;2.97;2.20;;;;;;;19.02;37.37;98148.09;10557221;28;20052;-56
2022/03/23 04:01:37;;;;;;;2.20;1.80;;;;;;;18.99;37.56;98154.84;10553892;28;20047;-56
2022/03/23 04:06:56;;;;;;;2.33;1.80;;;;;;;18.99;37.44;98154.03;10563998;28;20443;-56
2022/03/23 04:12:16;;;;;;;2.55;1.80;;;;;;;18.97;37.51;98143.53;10575641;28;20128;-57
2022/03/23 04:17:35;;;;;;;2.03;1.83;;;;;;;18.96;37.55;98150.03;10563509;28;20059;-57
2022/03/23 04:22:55;;;;;;;2.15;1.88;;;;;;;18.94;37.35;98144.91;10563429;28;20036;-57
2022/03/23 04:28:14;;;;;;;2.22;1.83;;;;;;;18.95;37.53;98153.81;10568219;28;20360;-56
2022/03/23 04:33:34;;;;;;;2.00;1.60;;;;;;;18.93;37.46;98147.91;10554787;28;20060;-56
2022/03/23 04:38:53;;;;;;;2.38;1.77;;;;;;;18.93;37.42;98156.00;10584902;28;20047;-58
2022/03/23 04:44:13;;;;;;;1.80;1.60;;;;;;;18.91;37.38;98156.28;10552565;28;20055;-57
2022/03/23 04:49:32;;;;;;;1.88;1.77;;;;;;;18.90;37.36;98162.78;10554785;28;20446;-57
2022/03/23 04:54:56;;;;;;;1.75;1.60;;;;;;;18.91;37.33;98168.97;10560513;28;20046;-57
2022/03/23 05:00:17;;;;;;;2.20;1.90;;;;;;;18.90;37.56;98170.88;10536341;28;20072;-57
2022/03/23 05:05:36;;;;;;;1.95;1.65;;;;;;;18.92;37.55;98167.91;10525973;28;20055;-56
2022/03/23 05:10:56;;;;;;;2.10;1.90;;;;;;;18.93;37.65;98172.19;10537156;28;20044;-58
2022/03/23 05:16:18;;;;;;;2.45;2.15;;;;;;;18.95;38.22;98172.72;10553627;28;20070;-58
2022/03/23 05:21:37;;;;;;;2.58;1.98;;;;;;;18.97;38.32;98186.72;10555938;28;20630;-58
2022/03/23 05:26:56;;;;;;;;;;;;;;;19.00;38.37;98175.38;10547626;28;20125;-59
2022/03/23 05:32:18;;;;;;;1.80;1.65;;;;;;;19.03;38.28;98174.78;10561316;28;19920;-58
2022/03/23 05:37:38;;;;;;;2.60;1.90;;;;;;;19.06;38.57;98176.91;10550708;28;20505;-58
2022/03/23 05:42:58;;;;;;;3.17;1.98;;;;;;;19.11;38.74;98178.75;10532884;28;20052;-58
2022/03/23 05:48:17;;;;;;;3.92;1.65;;;;;;;19.14;39.08;98167.38;10563635;28;20043;-59
2022/03/23 05:53:37;;;;;;;2.58;1.90;;;;;;;19.17;38.84;98173.03;10562395;28;20044;-58
2022/03/23 05:58:57;;;;;;;2.88;2.10;;;;;;;19.20;38.86;98163.53;10544439;28;20055;-57
2022/03/23 06:04:16;;;;;;;4.03;2.40;;;;;;;19.20;37.61;98166.22;10554272;28;20058;-56
2022/03/23 06:09:35;;;;;;;6.57;2.97;;;;;;;19.21;38.15;98173.25;10535971;28;20056;-56
2022/03/23 06:14:55;;;;;;;9.00;3.90;;;;;;;19.25;37.79;98157.25;10556714;28;20510;-56
2022/03/23 06:20:14;;;;;;;9.57;3.72;;;;;;;19.27;37.62;98163.19;10540580;28;20052;-56
2022/03/23 06:25:35;;;;;;;8.82;3.72;;;;;;;19.30;37.69;98171.50;10551149;28;20048;-57
2022/03/23 06:30:55;;;;;;;8.52;3.90;;;;;;;19.34;37.61;98169.03;10537144;28;20068;-57
2022/03/23 06:36:15;;;;;;;11.73;3.75;;;;;;;19.39;37.66;98174.38;10560229;28;20042;-57
2022/03/23 06:41:34;;;;;;;8.48;3.60;;;;;;;19.43;37.62;98180.03;10583410;28;20061;-57
2022/03/23 06:46:53;;;;;;;10.82;4.20;;;;;;;19.45;37.67;98175.91;10587649;28;20039;-57
2022/03/23 06:52:14;;;;;;;9.02;4.10;;;;;;;19.49;37.47;98178.84;10575297;28;20494;-57
2022/03/23 06:57:34;;;;;;;7.85;4.28;;;;;;;19.51;37.43;98182.06;10551822;28;20130;-56
2022/03/23 07:02:53;;;;;;;11.38;3.90;;;;;;;19.53;37.48;98177.19;10568073;28;20051;-57
2022/03/23 07:13:51;;;;;;;5.75;3.50;;;;;;;19.58;37.47;98184.41;10545496;28;20044;-57
2022/03/23 07:19:10;;;;;;;8.13;3.78;;;;;;;19.60;37.60;98187.63;10597500;28;20122;-57
2022/03/23 07:24:30;;;;;;;6.43;3.80;;;;;;;19.60;37.56;98176.81;10551053;28;20055;-56
2022/03/23 07:29:49;;;;;;;9.20;4.00;;;;;;;19.62;37.62;98180.84;10537057;28;20048;-56
2022/03/23 07:35:09;;;;;;;7.03;3.67;;;;;;;19.64;37.54;98185.94;10540725;28;20047;-57
2022/03/23 07:40:28;;;;;;;8.52;3.83;;;;;;;19.65;37.55;98185.66;10541598;28;20052;-56
2022/03/23 07:45:48;;;;;;;7.68;3.83;;;;;;;19.67;37.66;98185.38;10554210;28;20042;-57
2022/03/23 07:51:07;;;;;;;7.60;3.63;;;;;;;19.66;37.71;98181.88;10541950;28;20494;-56
2022/03/23 07:56:26;;;;;;;8.43;3.40;;;;;;;19.67;37.72;98185.38;10589689;28;20050;-56
2022/03/23 08:01:46;;;;;;;8.25;3.65;;;;;;;19.68;37.87;98187.78;10500321;28;20056;-57
2022/03/23 08:07:05;;;;;;;7.35;3.67;;;;;;;19.69;37.74;98177.78;10547789;28;20112;-56
2022/03/23 08:12:26;;;;;;;5.65;3.25;;;;;;;19.70;37.78;98182.09;10565876;28;20062;-57
2022/03/23 08:17:45;;;;;;;6.55;3.35;;;;;;;19.71;37.67;98178.28;10562236;28;20055;-57
2022/03/23 08:23:08;;;;;;;5.82;3.53;;;;;;;19.71;37.83;98184.53;10548742;28;20036;-57
2022/03/23 08:28:28;;;;;;;6.72;3.42;;;;;;;19.71;37.70;98187.22;10536934;28;20056;-57
2022/03/23 08:33:47;;;;;;;5.32;3.17;;;;;;;19.71;37.83;98181.81;10535180;28;20079;-57
2022/03/23 08:39:07;;;;;;;5.75;3.58;;;;;;;19.72;37.87;98185.34;10548323;28;20040;-56
2022/03/23 08:44:27;;;;;;;4.97;3.30;;;;;;;19.72;37.95;98191.56;10542786;28;20068;-57
2022/03/23 08:49:46;;;;;;;5.97;2.92;;;;;;;19.72;37.82;98185.34;10539588;28;20048;-56
2022/03/23 08:55:14;;;;;;;5.70;3.30;;;;;;;19.72;37.83;98188.84;10537088;28;20143;-57
2022/03/23 09:00:34;;;;;;;6.22;3.30;;;;;;;19.72;37.81;98190.75;10534006;28;20475;-57
2022/03/23 09:05:54;;;;;;;4.90;2.97;;;;;;;19.71;37.93;98187.22;10535796;28;20639;-57
2022/03/23 09:11:13;;;;;;;4.82;3.10;;;;;;;19.73;37.92;98189.63;10539525;28;20298;-57
2022/03/23 09:16:32;;;;;;;4.25;2.95;;;;;;;19.71;37.92;98187.22;10561219;28;20059;-56
2022/03/23 09:21:53;;;;;;;4.72;2.75;;;;;;;19.71;37.77;98184.53;10538646;28;20051;-56
2022/03/23 09:27:13;;;;;;;4.68;2.88;;;;;;;19.71;37.89;98173.69;10538572;28;20055;-57
2022/03/23 09:32:32;;;;;;;6.13;3.22;;;;;;;19.71;37.89;98184.53;10569781;28;20376;-56
2022/03/23 09:37:52;;;;;;;5.22;3.35;;;;;;;19.71;37.92;98171.00;10536105;28;20056;-56
2022/03/23 09:43:11;;;;;;;4.57;3.20;;;;;;;19.71;38.00;98170.19;10547778;28;20525;-56
2022/03/23 09:48:34;;;;;;;5.03;2.80;;;;;;;19.70;37.92;98169.38;10538739;28;20063;-56
2022/03/23 09:53:53;;;;;;;3.65;2.50;;;;;;;19.71;38.10;98162.06;10551428;28;20052;-57
2022/03/23 09:59:13;;;;;;;4.07;2.53;;;;;;;19.70;38.00;98166.66;10514237;28;20549;-56
2022/03/23 10:05:10;;;;;;;4.40;2.88;;;;;;;19.70;38.02;98152.38;10554501;28;20048;-56
2022/03/23 10:10:30;;;;;;;4.90;2.95;;;;;;;19.69;38.10;98151.53;10519682;28;20059;-56
2022/03/23 10:16:27;;;;;;;4.05;2.67;;;;;;;19.69;38.12;98142.63;10499504;28;20056;-57
2022/03/23 10:21:46;;;;;;;3.50;2.53;;;;;;;19.70;38.12;98149.66;10572081;28;20055;-56
2022/03/23 10:27:15;;;;;;;3.67;2.92;;;;;;;19.68;38.01;98146.41;10540611;28;20450;-56
2022/03/23 10:32:36;;;;;;;4.60;2.72;;;;;;;19.67;38.09;98137.50;10564525;28;20060;-56
2022/03/23 10:37:56;;;;;;;4.15;2.65;;;;;;;19.68;38.12;98132.91;10537385;28;20129;-57
2022/03/23 10:43:20;;;;;;;4.63;2.80;;;;;;;19.67;38.15;98128.59;10527510;28;20114;-57
2022/03/23 10:48:59;;;;;;;3.85;2.70;;;;;;;19.65;38.21;98120.78;10526498;28;20454;-56
2022/03/23 10:54:20;;;;;;;3.95;2.80;;;;;;;19.65;38.26;98119.97;10536099;28;20043;-56
2022/03/23 10:59:45;;;;;;;3.50;2.40;;;;;;;19.65;38.30;98103.75;10526945;28;20517;-56
2022/03/23 11:05:04;;;;;;;3.28;2.63;;;;;;;19.66;37.96;98103.47;10541880;28;20052;-56
2022/03/23 11:16:06;;;;;;;3.65;2.58;;;;;;;19.64;37.88;98089.44;10541051;28;20044;-56
2022/03/23 11:21:28;;;;;;;3.88;2.70;;;;;;;19.64;37.80;98083.22;10537658;28;20048;-57
2022/03/23 11:26:49;;;;;;;3.83;2.63;;;;;;;19.63;37.84;98076.22;10554587;28;20052;-57
2022/03/23 11:32:11;;;;;;;4.20;2.67;;;;;;;19.62;37.98;98061.06;10541197;28;20055;-56
2022/03/23 11:37:34;;;;;;;3.13;2.30;;;;;;;19.61;37.97;98054.88;10541058;28;20051;-56
2022/03/23 11:42:53;;;;;;;3.83;2.65;;;;;;;19.60;37.90;98058.69;10540167;28;20052;-57
2022/03/23 11:48:13;;;;;;;3.22;2.60;;;;;;;19.61;37.96;98056.78;10522078;28;20068;-57
2022/03/23 11:53:58;;;;;;;5.57;2.80;;;;;;;19.59;38.01;98043.56;10540608;28;20055;-56
2022/03/23 11:59:23;;;;;;;4.72;2.70;;;;;;;19.59;38.04;98040.06;10545198;28;20040;-57
2022/03/23 12:04:42;;;;;;;5.93;2.70;;;;;;;19.58;38.03;98033.03;10540133;28;20056;-56
2022/03/23 12:10:42;;;;;;;3.33;2.42;;;;;;;19.58;38.19;98022.22;10553182;28;20043;-56
2022/03/23 12:16:06;;;;;;;4.40;2.70;;;;;;;19.58;38.17;98012.19;10431549;28;20050;-56
2022/03/23 12:21:30;;;;;;;3.38;2.38;;;;;;;19.58;37.95;98006.00;10538638;28;20056;-56
2022/03/23 12:26:53;;;;;;;3.40;2.30;;;;;;;19.57;38.12;97997.09;10539107;28;20426;-56
2022/03/23 12:32:13;;;;;;;2.83;2.35;;;;;;;19.56;38.20;97999.00;10538829;28;20056;-56
2022/03/23 12:37:41;;;;;;;2.63;2.17;;;;;;;19.55;38.14;97986.56;10538463;28;20055;-56
2022/03/23 12:43:01;;;;;;;3.05;2.38;;;;;;;19.55;38.12;97986.56;10537831;28;20494;-57
2022/03/23 12:59:37;;;;;;;3.60;2.53;;;;;;;19.54;38.37;97971.47;10525237;28;19923;-56
2022/03/23 13:04:57;;;;;;;2.33;1.90;;;;;;;19.55;38.35;97970.34;10537067;28;20056;-56
2022/03/23 13:10:20;;;;;;;3.10;2.30;;;;;;;19.54;38.26;97963.34;10537255;28;20055;-57
2022/03/23 13:15:40;;;;;;;2.65;2.10;;;;;;;19.54;38.48;97963.34;10523262;28;20048;-57
2022/03/23 13:20:59;;;;;;;2.28;2.05;;;;;;;19.54;38.27;97947.16;10535347;28;20457;-57
2022/03/23 13:26:21;;;;;;;2.45;2.10;;;;;;;19.54;38.24;97947.16;10553591;28;20107;-57
2022/03/23 13:31:42;;;;;;;2.67;2.20;;;;;;;19.53;38.36;97948.22;10559203;28;20479;-57
2022/03/23 13:37:02;;;;;;;2.47;2.00;;;;;;;19.52;38.46;97941.22;10537483;28;20105;-57
2022/03/23 13:48:07;;;;;;;2.65;2.03;;;;;;;19.51;38.25;97930.72;10568264;28;20410;-56
2022/03/23 13:53:27;;;;;;;2.28;1.98;;;;;;;19.50;38.31;97924.50;10578157;28;20136;-55
2022/03/23 13:58:46;;;;;;;3.15;2.03;;;;;;;19.50;38.46;97921.81;10578606;28;20048;-56
2022/03/23 14:04:06;;;;;;;2.95;2.30;;;;;;;19.50;38.45;97929.09;10563292;28;20502;-57
2022/03/23 14:09:27;;;;;;;2.80;2.10;;;;;;;19.50;38.43;97923.69;10561862;28;20052;-57
2022/03/23 14:14:47;;;;;;;3.40;2.10;;;;;;;19.49;38.41;97914.78;10574028;28;20846;-56
2022/03/23 14:20:07;;;;;;;2.33;2.08;;;;;;;19.48;38.51;97918.59;10550792;28;20067;-55
2022/03/23 14:25:27;;;;;;;4.57;2.20;;;;;;;19.48;38.51;97907.78;10582501;28;20059;-57
2022/03/23 14:30:51;;;;;;;2.55;2.00;;;;;;;19.47;38.57;97902.69;10605311;28;20185;-56
2022/03/23 14:36:22;;;;;;;1.90;1.80;;;;;;;19.46;38.70;97893.75;10551713;28;20102;-56
2022/03/23 14:41:54;;;;;;;2.22;1.90;;;;;;;19.49;38.70;97900.47;10540100;28;20116;-57
2022/03/23 14:47:15;;;;;;;2.70;1.98;;;;;;;19.47;38.76;97884.56;10544002;28;20056;-57
2022/03/23 14:52:35;;;;;;;2.00;1.80;;;;;;;19.47;38.79;97878.34;10548970;28;20410;-56
2022/03/23 14:57:54;;;;;;;3.25;2.10;;;;;;;19.47;38.78;97878.34;10552571;28;20044;-57
2022/03/23 15:03:14;;;;;;;2.42;2.13;;;;;;;19.48;38.92;97886.16;10542264;28;20052;-57
2022/03/23 15:14:12;;;;;;;2.63;2.07;;;;;;;19.49;38.98;97882.34;10519847;28;20052;-57
2022/03/23 15:19:31;;;;;;;2.55;2.15;;;;;;;19.50;38.91;97873.16;10541474;28;20059;-55
2022/03/23 15:24:52;;;;;;;2.17;1.80;;;;;;;19.49;39.08;97874.25;10533527;28;20044;-56
2022/03/23 15:30:12;;;;;;;2.60;2.22;;;;;;;19.48;37.59;97869.94;10536787;28;20503;-57
2022/03/23 15:35:32;;;;;;;3.35;2.90;;;;;;;19.43;34.97;97872.75;10517949;28;20547;-57
2022/03/23 15:40:52;;;;;;;6.05;3.80;;;;;;;19.41;31.91;97866.03;10564889;28;20533;-58
2022/03/23 15:46:11;;;;;;;6.85;4.85;;;;;;;19.38;28.93;97863.91;10576146;28;20056;-58
2022/03/23 15:51:31;;;;;;;6.57;4.25;;;;;;;19.36;29.51;97858.81;10551491;28;20754;-58
2022/03/23 15:56:51;;;;;;;6.03;4.35;;;;;;;19.35;29.68;97857.22;10538185;28;20039;-57
2022/03/23 16:02:10;;;;;;;6.30;4.25;;;;;;;19.37;30.34;97857.72;10518641;28;20060;-57
2022/03/23 16:07:31;;;;;;;7.28;4.13;;;;;;;19.38;30.74;97856.59;10535855;28;20060;-59
2022/03/23 16:12:51;;;;;;;8.27;3.90;;;;;;;19.39;31.22;97852.03;10533406;28;20117;-59
2022/03/23 16:18:10;;;;;;;6.57;3.65;;;;;;;19.39;31.70;97857.44;10533774;28;20050;-58
2022/03/23 16:23:30;;;;;;;4.35;3.70;;;;;;;19.39;31.92;97860.91;10530597;28;20063;-58
2022/03/23 16:28:53;;;;;;;6.75;3.30;;;;;;;19.39;32.37;97854.72;10535450;28;20050;-57
2022/03/23 16:34:12;;;;;;;5.25;3.53;;;;;;;19.39;32.78;97855.50;10540325;28;20066;-58
2022/03/23 16:39:32;;;;;;;4.32;3.10;;;;;;;19.37;33.36;97860.41;10536960;28;20660;-58
2022/03/23 16:44:51;;;;;;;10.27;4.53;;;;;;;19.35;34.03;97849.91;10541384;28;20097;-59
2022/03/23 16:50:10;;;;;;;11.43;7.10;;;;;;;19.36;34.79;97859.59;10532467;28;20063;-57
2022/03/23 16:55:31;;;;;;;8.70;4.20;;;;;;;19.34;35.43;97861.78;10531598;28;20056;-58
2022/03/23 17:00:50;;;;;;;8.60;4.47;;;;;;;19.34;35.94;97855.59;10527779;28;20044;-58
2022/03/23 17:17:28;;;;;;;87.82;33.13;;;;;;;19.30;37.67;97866.19;10526924;28;20048;-57
2022/03/23 17:22:48;;;;;;;409.25;117.38;;;;;;;19.34;39.93;97877.22;10537926;28;20113;-57
2022/03/23 17:28:07;;;;;;;384.70;108.82;;;;;;;19.37;41.17;97871.22;10525121;28;20048;-58
2022/03/23 17:33:27;;;;;;;359.35;107.05;;;;;;;19.38;42.89;97872.03;10532084;28;20059;-58
2022/03/23 17:38:48;;;;;;;103.03;36.50;;;;;;;19.29;34.60;97869.22;10548380;28;20036;-59
2022/03/23 17:44:07;;;;;;;117.35;34.88;;;;;;;19.08;33.86;97874.13;10526866;28;20542;-57
2022/03/23 17:49:27;;;;;;;98.82;33.03;;;;;;;19.10;38.06;97880.84;10532307;28;20051;-58
2022/03/23 17:54:46;;;;;;;102.82;34.50;;;;;;;19.15;38.77;97880.78;10533802;28;20078;-57
2022/03/23 18:00:07;;;;;;;97.43;32.90;;;;;;;19.19;39.74;97878.28;10534045;28;20552;-57
2022/03/23 18:05:31;;;;;;;63.75;24.52;;;;;;;19.21;39.89;97883.38;10529577;28;20052;-56
2022/03/23 18:10:51;;;;;;;34.00;15.65;;;;;;;19.12;32.02;97886.75;10531595;28;20039;-57
2022/03/23 18:16:11;;;;;;;24.85;13.02;;;;;;;19.00;31.39;97889.09;10546616;28;20386;-56
2022/03/23 18:21:31;;;;;;;19.85;10.60;;;;;;;18.84;28.47;97891.25;10556470;28;20407;-56
2022/03/23 18:26:52;;;;;;;17.88;9.52;;;;;;;18.84;28.47;97891.25;10534747;28;20628;-56
2022/03/23 18:32:12;;;;;;;15.30;9.68;;;;;;;-146.19;100.00;65364.44;10553590;28;20464;-52
2022/03/23 18:37:32;;;;;;;12.40;9.52;;;;;;;-146.19;100.00;65364.44;10554253;28;20144;-53
2022/03/23 18:42:52;;;;;;;12.05;8.13;;;;;;;18.84;28.47;97891.25;10560570;28;20427;-55
2022/03/23 18:48:11;;;;;;;12.35;8.27;;;;;;;18.75;32.30;97890.25;10546586;28;20040;-54
2022/03/23 18:53:31;;;;;;;17.05;8.63;;;;;;;18.81;33.21;97891.03;10583711;28;20052;-54
2022/03/23 18:58:51;;;;;;;17.58;7.60;;;;;;;18.85;34.04;97887.44;10553964;28;20044;-53
2022/03/23 19:04:10;;;;;;;17.65;7.18;;;;;;;18.90;34.48;97881.16;10541991;28;20048;-56
2022/03/23 19:09:30;;;;;;;13.68;7.20;;;;;;;18.94;35.24;97884.88;10542419;28;20070;-55
2022/03/23 19:14:50;;;;;;;9.93;6.90;;;;;;;18.97;35.87;97889.69;10582832;28;20108;-54
2022/03/23 19:20:12;;;;;;;11.65;6.55;;;;;;;18.99;36.07;97892.88;10556660;28;20037;-53
2022/03/23 19:25:31;;;;;;;9.98;6.07;;;;;;;19.02;36.65;97892.31;10525046;28;20044;-53
2022/03/23 19:30:52;;;;;;;9.68;6.18;;;;;;;19.05;37.12;97899.03;10553244;28;20039;-56
2022/03/23 19:36:12;;;;;;;12.80;6.35;;;;;;;19.09;37.60;97897.34;10540490;28;20639;-58
2022/03/23 19:41:32;;;;;;;10.73;6.35;;;;;;;19.11;37.50;97895.97;10539464;28;20521;-59
2022/03/23 19:46:51;;;;;;;9.10;6.60;;;;;;;19.15;37.85;97896.97;10539128;28;20056;-58
2022/03/23 19:52:11;;;;;;;7.95;5.68;;;;;;;19.20;38.45;97898.78;10538856;28;20048;-57
2022/03/23 19:57:31;;;;;;;9.15;6.15;;;;;;;19.23;38.59;97891.97;10543896;28;20532;-58
2022/03/23 20:02:51;;;;;;;9.38;5.75;;;;;;;19.27;38.83;97898.41;10543261;28;20046;-57
2022/03/23 20:08:11;;;;;;;11.82;6.57;;;;;;;19.29;38.60;97904.34;10537994;28;20051;-57
2022/03/23 20:13:30;;;;;;;11.02;6.53;;;;;;;19.32;38.58;97896.41;10543071;28;20078;-57
2022/03/23 20:18:49;;;;;;;7.32;5.85;;;;;;;19.33;38.60;97899.94;10535833;28;20040;-61
2022/03/23 20:24:09;;;;;;;8.75;5.85;;;;;;;19.35;38.64;97900.44;10539584;28;20055;-60
2022/03/23 20:29:29;;;;;;;8.88;5.85;;;;;;;19.36;38.43;97899.31;10550111;28;20044;-61
2022/03/23 20:34:48;;;;;;;9.77;5.93;;;;;;;19.38;38.38;97907.94;10538846;28;20116;-61
2022/03/23 20:40:09;;;;;;;11.05;6.10;;;;;;;19.41;38.47;97909.28;10542140;28;20087;-61
2022/03/23 20:45:51;;;;;;;7.80;5.93;;;;;;;19.41;38.06;97910.06;10544856;28;20060;-61
2022/03/23 20:51:12;;;;;;;7.25;6.07;;;;;;;19.46;37.97;97918.06;10548307;28;20532;-59
2022/03/23 20:56:31;;;;;;;7.65;5.80;;;;;;;19.50;37.66;97911.00;10551982;28;20444;-58
2022/03/23 21:01:53;;;;;;;9.35;5.60;;;;;;;19.53;37.75;97904.19;10568310;28;20051;-58
2022/03/23 21:07:12;;;;;;;9.52;5.78;;;;;;;19.56;37.86;97908.97;10523597;28;20056;-59
2022/03/23 21:12:31;;;;;;;6.60;5.28;;;;;;;19.60;37.92;97918.13;10536348;28;20062;-59
2022/03/23 21:17:52;;;;;;;8.68;5.25;;;;;;;19.64;37.92;97907.50;10532650;28;20044;-59
2022/03/23 21:23:13;;;;;;;8.48;5.38;;;;;;;19.67;38.06;97904.22;10523491;28;20052;-59
2022/03/23 21:28:33;;;;;;;6.40;4.93;;;;;;;19.70;38.19;97901.72;10542262;28;20127;-59
2022/03/23 21:33:53;;;;;;;6.38;4.63;;;;;;;19.75;38.16;97906.25;10545139;28;20035;-59
2022/03/23 21:39:15;;;;;;;7.05;5.00;;;;;;;19.77;38.23;97908.66;10528628;28;20048;-58
2022/03/23 21:44:35;;;;;;;7.75;4.60;;;;;;;19.77;38.33;97905.97;10530646;28;20411;-59
2022/03/23 21:49:54;;;;;;;8.45;5.10;;;;;;;19.79;38.51;97901.84;10530468;28;20461;-59
2022/03/23 21:55:14;;;;;;;9.90;5.85;;;;;;;19.79;38.44;97899.16;10529105;28;20044;-59
2022/03/23 22:00:35;;;;;;;11.35;5.53;;;;;;;19.83;38.73;97893.94;10533467;28;20044;-58
2022/03/23 22:05:54;;;;;;;9.48;5.40;;;;;;;19.84;38.67;97904.47;10546636;28;20051;-59
2022/03/23 22:11:16;;;;;;;9.70;5.22;;;;;;;19.86;38.67;97904.19;10538391;28;20044;-59
2022/03/23 22:16:36;;;;;;;12.05;6.10;;;;;;;19.85;38.80;97897.94;10522982;28;20466;-59
2022/03/23 22:21:55;;;;;;;12.48;5.97;;;;;;;19.86;38.81;97896.88;10527305;28;20040;-59
2022/03/23 22:27:14;;;;;;;9.43;5.57;;;;;;;19.88;38.84;97899.28;10538947;28;20055;-58
2022/03/23 22:32:34;;;;;;;10.90;6.20;;;;;;;19.87;39.11;97893.03;10541415;28;20041;-58
2022/03/23 22:37:54;;;;;;;9.50;5.70;;;;;;;19.88;39.49;97888.47;10510764;28;20049;-59
2022/03/23 22:43:13;;;;;;;10.88;5.47;;;;;;;19.87;39.71;97890.34;10539264;28;20498;-59
2022/03/23 22:48:34;;;;;;;9.25;5.20;;;;;;;19.88;39.50;97889.25;10542748;28;20051;-59
2022/03/23 22:53:54;;;;;;;9.80;5.38;;;;;;;19.90;39.46;97888.97;10543030;28;20048;-58
2022/03/23 22:59:13;;;;;;;8.35;5.57;;;;;;;19.91;39.43;97885.13;10542740;28;20048;-59
2022/03/23 23:04:32;;;;;;;7.28;4.97;;;;;;;19.90;39.43;97883.53;10541751;28;20108;-58
2022/03/23 23:09:54;;;;;;;7.72;4.72;;;;;;;19.89;39.30;97882.72;10543374;28;20391;-58
2022/03/23 23:15:14;;;;;;;7.03;4.70;;;;;;;19.89;39.48;97881.94;10570045;28;20041;-59
2022/03/23 23:20:34;;;;;;;7.43;4.80;;;;;;;19.89;39.31;97882.72;10534307;28;20050;-59
2022/03/23 23:25:54;;;;;;;7.38;4.35;;;;;;;19.90;39.25;97876.22;10538470;28;20046;-59
2022/03/23 23:31:14;;;;;;;7.25;4.35;;;;;;;19.91;39.37;97890.53;10531270;28;20633;-59
2022/03/23 23:36:37;;;;;;;7.07;4.70;;;;;;;19.90;39.23;97883.53;10537784;28;20063;-59
2022/03/23 23:41:57;;;;;;;8.43;5.00;;;;;;;19.90;39.17;97878.13;10542407;28;20095;-58
2022/03/23 23:47:16;;;;;;;6.47;4.85;;;;;;;19.89;39.36;97871.91;10516261;28;20063;-59
2022/03/23 23:52:36;;;;;;;6.25;4.15;;;;;;;19.89;39.18;97865.72;10538319;28;20048;-59
2022/03/23 23:57:56;;;;;;;6.50;4.10;;;;;;;19.89;39.19;97868.41;10556253;28;20044;-59
